sensor_id;sensor_type;location;lat;lon;timestamp;P1;durP1;ratioP1;P2;durP2;ratioP2
44328;SDS011;30039;51.462;6.892;2022-11-20T00:02:04;24.08;;;12.30;;
44328;SDS011;30039;51.462;6.892;2022-11-20T00:04:49;22.15;;;12.77;;
44328;SDS011;30039;51.462;6.892;2022-11-20T00:07:35;22.25;;;12.32;;
44328;SDS011;30039;51.462;6.892;2022-11-20T00:10:21;25.30;;;12.05;;
44328;SDS011;30039;51.462;6.892;2022-11-20T00:13:07;26.25;;;13.63;;
44328;SDS011;30039;51.462;6.892;2022-11-20T00:15:57;23.33;;;12.73;;
44328;SDS011;30039;51.462;6.892;2022-11-20T00:18:42;22.98;;;12.20;;
44328;SDS011;30039;51.462;6.892;2022-11-20T00:21:29;22.80;;;12.23;;
44328;SDS011;30039;51.462;6.892;2022-11-20T00:24:15;19.70;;;11.50;;
44328;SDS011;30039;51.462;6.892;2022-11-20T00:27:01;21.63;;;12.20;;
44328;SDS011;30039;51.462;6.892;2022-11-20T00:29:46;21.95;;;12.23;;
44328;SDS011;30039;51.462;6.892;2022-11-20T00:32:32;21.33;;;11.63;;
44328;SDS011;30039;51.462;6.892;2022-11-20T00:35:18;19.88;;;11.73;;
44328;SDS011;30039;51.462;6.892;2022-11-20T00:38:03;22.83;;;12.43;;
44328;SDS011;30039;51.462;6.892;2022-11-20T00:40:54;20.02;;;11.73;;
44328;SDS011;30039;51.462;6.892;2022-11-20T00:43:42;25.17;;;13.45;;
44328;SDS011;30039;51.462;6.892;2022-11-20T00:46:27;23.58;;;13.52;;
44328;SDS011;30039;51.462;6.892;2022-11-20T00:49:13;23.25;;;13.23;;
44328;SDS011;30039;51.462;6.892;2022-11-20T00:51:59;22.58;;;12.25;;
44328;SDS011;30039;51.462;6.892;2022-11-20T00:54:45;22.40;;;12.77;;
44328;SDS011;30039;51.462;6.892;2022-11-20T00:57:31;22.55;;;12.27;;
44328;SDS011;30039;51.462;6.892;2022-11-20T01:00:17;21.35;;;12.75;;
44328;SDS011;30039;51.462;6.892;2022-11-20T01:03:03;23.95;;;12.25;;
44328;SDS011;30039;51.462;6.892;2022-11-20T01:05:49;23.08;;;12.88;;
44328;SDS011;30039;51.462;6.892;2022-11-20T01:08:35;20.00;;;12.98;;
44328;SDS011;30039;51.462;6.892;2022-11-20T01:11:22;22.75;;;13.15;;
44328;SDS011;30039;51.462;6.892;2022-11-20T01:14:12;20.60;;;12.50;;
44328;SDS011;30039;51.462;6.892;2022-11-20T01:16:58;25.23;;;14.02;;
44328;SDS011;30039;51.462;6.892;2022-11-20T01:19:44;22.95;;;12.63;;
44328;SDS011;30039;51.462;6.892;2022-11-20T01:22:30;23.45;;;12.68;;
44328;SDS011;30039;51.462;6.892;2022-11-20T01:25:16;23.57;;;12.73;;
44328;SDS011;30039;51.462;6.892;2022-11-20T01:28:02;23.00;;;12.60;;
44328;SDS011;30039;51.462;6.892;2022-11-20T01:30:48;22.15;;;12.55;;
44328;SDS011;30039;51.462;6.892;2022-11-20T01:33:33;20.30;;;12.45;;
44328;SDS011;30039;51.462;6.892;2022-11-20T01:36:20;22.58;;;12.07;;
44328;SDS011;30039;51.462;6.892;2022-11-20T01:39:19;21.08;;;11.15;;
44328;SDS011;30039;51.462;6.892;2022-11-20T01:42:05;22.20;;;11.68;;
44328;SDS011;30039;51.462;6.892;2022-11-20T01:48:15;22.73;;;12.30;;
44328;SDS011;30039;51.462;6.892;2022-11-20T01:51:00;21.98;;;11.75;;
44328;SDS011;30039;51.462;6.892;2022-11-20T01:53:47;22.98;;;12.98;;
44328;SDS011;30039;51.462;6.892;2022-11-20T01:56:35;28.25;;;12.82;;
44328;SDS011;30039;51.462;6.892;2022-11-20T01:59:23;23.52;;;12.70;;
44328;SDS011;30039;51.462;6.892;2022-11-20T02:02:09;21.15;;;12.90;;
44328;SDS011;30039;51.462;6.892;2022-11-20T02:04:56;23.92;;;12.18;;
44328;SDS011;30039;51.462;6.892;2022-11-20T02:07:44;22.17;;;12.48;;
44328;SDS011;30039;51.462;6.892;2022-11-20T02:10:31;23.20;;;12.45;;
44328;SDS011;30039;51.462;6.892;2022-11-20T02:13:17;22.67;;;11.88;;
44328;SDS011;30039;51.462;6.892;2022-11-20T02:16:27;23.50;;;12.40;;
44328;SDS011;30039;51.462;6.892;2022-11-20T02:19:26;24.45;;;12.55;;
44328;SDS011;30039;51.462;6.892;2022-11-20T02:22:18;27.45;;;13.20;;
44328;SDS011;30039;51.462;6.892;2022-11-20T02:25:05;27.30;;;13.95;;
44328;SDS011;30039;51.462;6.892;2022-11-20T02:27:56;22.02;;;12.57;;
44328;SDS011;30039;51.462;6.892;2022-11-20T02:30:42;22.25;;;12.85;;
44328;SDS011;30039;51.462;6.892;2022-11-20T02:33:28;24.17;;;12.60;;
44328;SDS011;30039;51.462;6.892;2022-11-20T02:36:14;24.60;;;13.18;;
44328;SDS011;30039;51.462;6.892;2022-11-20T02:39:01;21.40;;;12.07;;
44328;SDS011;30039;51.462;6.892;2022-11-20T02:41:46;21.00;;;11.50;;
44328;SDS011;30039;51.462;6.892;2022-11-20T02:44:32;22.55;;;12.10;;
44328;SDS011;30039;51.462;6.892;2022-11-20T02:47:18;24.83;;;13.45;;
44328;SDS011;30039;51.462;6.892;2022-11-20T02:50:04;22.98;;;12.95;;
44328;SDS011;30039;51.462;6.892;2022-11-20T02:52:50;24.88;;;13.98;;
44328;SDS011;30039;51.462;6.892;2022-11-20T02:55:35;21.40;;;12.30;;
44328;SDS011;30039;51.462;6.892;2022-11-20T02:58:21;23.45;;;11.93;;
44328;SDS011;30039;51.462;6.892;2022-11-20T03:01:08;21.00;;;12.50;;
44328;SDS011;30039;51.462;6.892;2022-11-20T03:03:54;20.23;;;12.13;;
44328;SDS011;30039;51.462;6.892;2022-11-20T03:06:40;22.50;;;12.30;;
44328;SDS011;30039;51.462;6.892;2022-11-20T03:09:26;22.42;;;12.55;;
44328;SDS011;30039;51.462;6.892;2022-11-20T03:12:15;23.80;;;12.70;;
44328;SDS011;30039;51.462;6.892;2022-11-20T03:15:01;20.83;;;12.40;;
44328;SDS011;30039;51.462;6.892;2022-11-20T03:17:46;22.75;;;11.75;;
44328;SDS011;30039;51.462;6.892;2022-11-20T03:20:32;21.08;;;12.27;;
44328;SDS011;30039;51.462;6.892;2022-11-20T03:23:18;23.08;;;12.73;;
44328;SDS011;30039;51.462;6.892;2022-11-20T03:26:20;21.60;;;11.55;;
44328;SDS011;30039;51.462;6.892;2022-11-20T03:29:06;23.77;;;13.05;;
44328;SDS011;30039;51.462;6.892;2022-11-20T03:31:52;22.83;;;12.50;;
44328;SDS011;30039;51.462;6.892;2022-11-20T03:34:39;21.73;;;12.60;;
44328;SDS011;30039;51.462;6.892;2022-11-20T03:37:24;19.65;;;12.25;;
44328;SDS011;30039;51.462;6.892;2022-11-20T03:40:10;25.17;;;12.68;;
44328;SDS011;30039;51.462;6.892;2022-11-20T03:42:56;21.60;;;12.32;;
44328;SDS011;30039;51.462;6.892;2022-11-20T03:45:41;22.55;;;12.35;;
44328;SDS011;30039;51.462;6.892;2022-11-20T03:48:27;21.65;;;12.68;;
44328;SDS011;30039;51.462;6.892;2022-11-20T03:51:14;25.15;;;12.32;;
44328;SDS011;30039;51.462;6.892;2022-11-20T03:54:04;25.33;;;12.50;;
44328;SDS011;30039;51.462;6.892;2022-11-20T03:56:50;22.75;;;11.85;;
44328;SDS011;30039;51.462;6.892;2022-11-20T03:59:36;18.65;;;11.07;;
44328;SDS011;30039;51.462;6.892;2022-11-20T04:02:21;21.25;;;11.70;;
44328;SDS011;30039;51.462;6.892;2022-11-20T04:05:07;21.38;;;11.88;;
44328;SDS011;30039;51.462;6.892;2022-11-20T04:07:53;21.35;;;12.23;;
44328;SDS011;30039;51.462;6.892;2022-11-20T04:10:40;21.73;;;11.20;;
44328;SDS011;30039;51.462;6.892;2022-11-20T04:13:26;20.33;;;11.05;;
44328;SDS011;30039;51.462;6.892;2022-11-20T04:16:11;23.30;;;12.10;;
44328;SDS011;30039;51.462;6.892;2022-11-20T04:18:58;20.55;;;10.30;;
44328;SDS011;30039;51.462;6.892;2022-11-20T04:21:44;18.25;;;10.80;;
44328;SDS011;30039;51.462;6.892;2022-11-20T04:24:30;20.08;;;11.80;;
44328;SDS011;30039;51.462;6.892;2022-11-20T04:27:15;22.95;;;11.18;;
44328;SDS011;30039;51.462;6.892;2022-11-20T04:30:01;22.02;;;11.48;;
44328;SDS011;30039;51.462;6.892;2022-11-20T04:32:47;19.98;;;11.30;;
44328;SDS011;30039;51.462;6.892;2022-11-20T04:35:36;21.48;;;11.90;;
44328;SDS011;30039;51.462;6.892;2022-11-20T04:38:21;15.88;;;10.45;;
44328;SDS011;30039;51.462;6.892;2022-11-20T04:41:10;20.60;;;11.85;;
44328;SDS011;30039;51.462;6.892;2022-11-20T04:44:01;21.17;;;11.13;;
44328;SDS011;30039;51.462;6.892;2022-11-20T04:46:49;19.27;;;11.93;;
44328;SDS011;30039;51.462;6.892;2022-11-20T04:49:35;20.38;;;10.85;;
44328;SDS011;30039;51.462;6.892;2022-11-20T04:52:21;21.23;;;11.38;;
44328;SDS011;30039;51.462;6.892;2022-11-20T04:55:07;23.08;;;11.20;;
44328;SDS011;30039;51.462;6.892;2022-11-20T04:57:52;19.08;;;11.48;;
44328;SDS011;30039;51.462;6.892;2022-11-20T05:00:38;20.25;;;11.27;;
44328;SDS011;30039;51.462;6.892;2022-11-20T05:03:24;21.50;;;12.45;;
44328;SDS011;30039;51.462;6.892;2022-11-20T05:06:11;22.35;;;12.15;;
44328;SDS011;30039;51.462;6.892;2022-11-20T05:08:57;19.63;;;11.40;;
44328;SDS011;30039;51.462;6.892;2022-11-20T05:11:42;17.27;;;11.23;;
44328;SDS011;30039;51.462;6.892;2022-11-20T05:14:28;21.33;;;11.88;;
44328;SDS011;30039;51.462;6.892;2022-11-20T05:17:14;20.15;;;11.88;;
44328;SDS011;30039;51.462;6.892;2022-11-20T05:19:59;20.95;;;11.60;;
44328;SDS011;30039;51.462;6.892;2022-11-20T05:22:45;21.15;;;11.50;;
44328;SDS011;30039;51.462;6.892;2022-11-20T05:25:31;22.70;;;11.10;;
44328;SDS011;30039;51.462;6.892;2022-11-20T05:28:17;18.77;;;11.10;;
44328;SDS011;30039;51.462;6.892;2022-11-20T05:31:09;19.92;;;10.85;;
44328;SDS011;30039;51.462;6.892;2022-11-20T05:33:56;19.80;;;11.45;;
44328;SDS011;30039;51.462;6.892;2022-11-20T05:36:42;19.80;;;10.65;;
44328;SDS011;30039;51.462;6.892;2022-11-20T05:39:28;18.38;;;11.88;;
44328;SDS011;30039;51.462;6.892;2022-11-20T05:42:14;22.90;;;11.25;;
44328;SDS011;30039;51.462;6.892;2022-11-20T05:45:18;19.35;;;11.25;;
44328;SDS011;30039;51.462;6.892;2022-11-20T05:48:04;21.48;;;11.52;;
44328;SDS011;30039;51.462;6.892;2022-11-20T05:50:49;21.55;;;11.73;;
44328;SDS011;30039;51.462;6.892;2022-11-20T05:53:35;17.13;;;10.70;;
44328;SDS011;30039;51.462;6.892;2022-11-20T05:56:21;19.98;;;12.23;;
44328;SDS011;30039;51.462;6.892;2022-11-20T05:59:07;32.10;;;14.65;;
44328;SDS011;30039;51.462;6.892;2022-11-20T06:01:53;18.05;;;10.82;;
44328;SDS011;30039;51.462;6.892;2022-11-20T06:04:38;22.08;;;11.90;;
44328;SDS011;30039;51.462;6.892;2022-11-20T06:07:24;22.08;;;11.52;;
44328;SDS011;30039;51.462;6.892;2022-11-20T06:10:10;22.13;;;12.38;;
44328;SDS011;30039;51.462;6.892;2022-11-20T06:12:59;22.45;;;12.32;;
44328;SDS011;30039;51.462;6.892;2022-11-20T06:15:51;20.48;;;11.63;;
44328;SDS011;30039;51.462;6.892;2022-11-20T06:18:37;16.83;;;10.85;;
44328;SDS011;30039;51.462;6.892;2022-11-20T06:21:23;20.10;;;11.20;;
44328;SDS011;30039;51.462;6.892;2022-11-20T06:24:10;27.88;;;15.13;;
44328;SDS011;30039;51.462;6.892;2022-11-20T06:26:56;22.45;;;12.73;;
44328;SDS011;30039;51.462;6.892;2022-11-20T06:29:42;23.35;;;12.80;;
44328;SDS011;30039;51.462;6.892;2022-11-20T06:32:29;21.10;;;11.80;;
44328;SDS011;30039;51.462;6.892;2022-11-20T06:35:15;21.77;;;12.75;;
44328;SDS011;30039;51.462;6.892;2022-11-20T06:38:00;22.15;;;11.82;;
44328;SDS011;30039;51.462;6.892;2022-11-20T06:40:47;22.05;;;12.60;;
44328;SDS011;30039;51.462;6.892;2022-11-20T06:43:33;19.85;;;11.77;;
44328;SDS011;30039;51.462;6.892;2022-11-20T06:46:19;21.30;;;12.02;;
44328;SDS011;30039;51.462;6.892;2022-11-20T06:49:04;21.92;;;11.23;;
44328;SDS011;30039;51.462;6.892;2022-11-20T06:51:51;22.85;;;12.23;;
44328;SDS011;30039;51.462;6.892;2022-11-20T06:54:36;21.55;;;10.88;;
44328;SDS011;30039;51.462;6.892;2022-11-20T06:57:22;23.75;;;12.65;;
44328;SDS011;30039;51.462;6.892;2022-11-20T07:00:08;21.45;;;12.18;;
44328;SDS011;30039;51.462;6.892;2022-11-20T07:02:53;19.20;;;11.30;;
44328;SDS011;30039;51.462;6.892;2022-11-20T07:05:39;22.05;;;11.98;;
44328;SDS011;30039;51.462;6.892;2022-11-20T07:08:25;21.13;;;12.88;;
44328;SDS011;30039;51.462;6.892;2022-11-20T07:11:11;22.92;;;12.43;;
44328;SDS011;30039;51.462;6.892;2022-11-20T07:13:58;20.90;;;11.88;;
44328;SDS011;30039;51.462;6.892;2022-11-20T07:16:44;22.73;;;13.55;;
44328;SDS011;30039;51.462;6.892;2022-11-20T07:19:29;27.30;;;14.25;;
44328;SDS011;30039;51.462;6.892;2022-11-20T07:22:15;31.20;;;15.88;;
44328;SDS011;30039;51.462;6.892;2022-11-20T07:25:01;23.48;;;15.43;;
44328;SDS011;30039;51.462;6.892;2022-11-20T07:27:47;26.65;;;15.57;;
44328;SDS011;30039;51.462;6.892;2022-11-20T07:30:32;22.90;;;12.45;;
44328;SDS011;30039;51.462;6.892;2022-11-20T07:33:18;27.70;;;15.48;;
44328;SDS011;30039;51.462;6.892;2022-11-20T07:36:04;25.38;;;14.88;;
44328;SDS011;30039;51.462;6.892;2022-11-20T07:38:51;24.02;;;14.10;;
44328;SDS011;30039;51.462;6.892;2022-11-20T07:41:37;25.23;;;14.07;;
44328;SDS011;30039;51.462;6.892;2022-11-20T07:44:23;30.17;;;15.00;;
44328;SDS011;30039;51.462;6.892;2022-11-20T07:47:08;24.77;;;13.73;;
44328;SDS011;30039;51.462;6.892;2022-11-20T07:49:57;21.70;;;12.45;;
44328;SDS011;30039;51.462;6.892;2022-11-20T07:52:43;21.95;;;12.43;;
44328;SDS011;30039;51.462;6.892;2022-11-20T07:55:28;23.20;;;13.45;;
44328;SDS011;30039;51.462;6.892;2022-11-20T07:58:14;20.15;;;12.88;;
44328;SDS011;30039;51.462;6.892;2022-11-20T08:01:03;23.20;;;12.48;;
44328;SDS011;30039;51.462;6.892;2022-11-20T08:03:49;24.05;;;14.23;;
44328;SDS011;30039;51.462;6.892;2022-11-20T08:06:35;29.45;;;16.85;;
44328;SDS011;30039;51.462;6.892;2022-11-20T08:09:21;24.17;;;14.40;;
44328;SDS011;30039;51.462;6.892;2022-11-20T08:12:20;25.13;;;15.05;;
44328;SDS011;30039;51.462;6.892;2022-11-20T08:15:27;37.95;;;23.90;;
44328;SDS011;30039;51.462;6.892;2022-11-20T08:18:13;23.80;;;13.65;;
44328;SDS011;30039;51.462;6.892;2022-11-20T08:21:02;28.52;;;16.05;;
44328;SDS011;30039;51.462;6.892;2022-11-20T08:23:48;29.75;;;17.42;;
44328;SDS011;30039;51.462;6.892;2022-11-20T08:26:36;29.42;;;15.75;;
44328;SDS011;30039;51.462;6.892;2022-11-20T08:29:22;23.80;;;14.27;;
44328;SDS011;30039;51.462;6.892;2022-11-20T08:32:08;29.52;;;16.50;;
44328;SDS011;30039;51.462;6.892;2022-11-20T08:34:53;27.02;;;16.20;;
44328;SDS011;30039;51.462;6.892;2022-11-20T08:37:39;51.13;;;26.90;;
44328;SDS011;30039;51.462;6.892;2022-11-20T08:40:27;29.48;;;15.90;;
44328;SDS011;30039;51.462;6.892;2022-11-20T08:43:13;28.30;;;16.50;;
44328;SDS011;30039;51.462;6.892;2022-11-20T08:45:59;28.83;;;16.58;;
44328;SDS011;30039;51.462;6.892;2022-11-20T08:48:44;28.60;;;16.60;;
44328;SDS011;30039;51.462;6.892;2022-11-20T08:51:30;24.08;;;15.20;;
44328;SDS011;30039;51.462;6.892;2022-11-20T08:54:16;24.38;;;14.95;;
44328;SDS011;30039;51.462;6.892;2022-11-20T08:57:05;30.63;;;15.82;;
44328;SDS011;30039;51.462;6.892;2022-11-20T08:59:50;28.70;;;15.40;;
44328;SDS011;30039;51.462;6.892;2022-11-20T09:02:36;26.33;;;14.63;;
44328;SDS011;30039;51.462;6.892;2022-11-20T09:05:22;25.70;;;14.50;;
44328;SDS011;30039;51.462;6.892;2022-11-20T09:08:08;21.05;;;13.25;;
44328;SDS011;30039;51.462;6.892;2022-11-20T09:10:54;25.58;;;15.20;;
44328;SDS011;30039;51.462;6.892;2022-11-20T09:13:40;23.30;;;12.13;;
44328;SDS011;30039;51.462;6.892;2022-11-20T09:16:25;21.52;;;12.32;;
44328;SDS011;30039;51.462;6.892;2022-11-20T09:19:11;21.40;;;11.48;;
44328;SDS011;30039;51.462;6.892;2022-11-20T09:21:57;21.30;;;11.75;;
44328;SDS011;30039;51.462;6.892;2022-11-20T09:24:44;19.75;;;11.73;;
44328;SDS011;30039;51.462;6.892;2022-11-20T09:27:30;19.02;;;11.05;;
44328;SDS011;30039;51.462;6.892;2022-11-20T09:30:16;22.23;;;11.73;;
44328;SDS011;30039;51.462;6.892;2022-11-20T09:33:07;19.60;;;11.40;;
44328;SDS011;30039;51.462;6.892;2022-11-20T09:35:53;18.58;;;10.63;;
44328;SDS011;30039;51.462;6.892;2022-11-20T09:38:39;18.27;;;10.00;;
44328;SDS011;30039;51.462;6.892;2022-11-20T09:44:40;19.47;;;10.20;;
44328;SDS011;30039;51.462;6.892;2022-11-20T09:50:32;18.88;;;9.65;;
44328;SDS011;30039;51.462;6.892;2022-11-20T09:53:29;13.25;;;8.18;;
44328;SDS011;30039;51.462;6.892;2022-11-20T09:56:16;18.42;;;9.40;;
44328;SDS011;30039;51.462;6.892;2022-11-20T09:59:03;16.70;;;9.13;;
44328;SDS011;30039;51.462;6.892;2022-11-20T10:01:50;17.48;;;9.80;;
44328;SDS011;30039;51.462;6.892;2022-11-20T10:04:36;16.75;;;10.30;;
44328;SDS011;30039;51.462;6.892;2022-11-20T10:07:30;13.88;;;8.85;;
44328;SDS011;30039;51.462;6.892;2022-11-20T10:10:20;18.10;;;9.88;;
44328;SDS011;30039;51.462;6.892;2022-11-20T10:16:09;16.67;;;9.05;;
44328;SDS011;30039;51.462;6.892;2022-11-20T10:30:29;21.30;;;11.45;;
44328;SDS011;30039;51.462;6.892;2022-11-20T10:33:17;16.88;;;9.70;;
44328;SDS011;30039;51.462;6.892;2022-11-20T10:36:09;15.35;;;9.65;;
44328;SDS011;30039;51.462;6.892;2022-11-20T10:39:00;14.38;;;8.40;;
44328;SDS011;30039;51.462;6.892;2022-11-20T10:41:49;16.33;;;9.00;;
44328;SDS011;30039;51.462;6.892;2022-11-20T10:44:36;14.82;;;8.70;;
44328;SDS011;30039;51.462;6.892;2022-11-20T10:47:40;13.30;;;8.40;;
44328;SDS011;30039;51.462;6.892;2022-11-20T10:50:26;17.95;;;9.70;;
44328;SDS011;30039;51.462;6.892;2022-11-20T10:56:03;18.13;;;9.70;;
44328;SDS011;30039;51.462;6.892;2022-11-20T11:01:40;17.75;;;9.95;;
44328;SDS011;30039;51.462;6.892;2022-11-20T11:07:27;14.77;;;8.98;;
44328;SDS011;30039;51.462;6.892;2022-11-20T11:13:01;16.38;;;8.63;;
44328;SDS011;30039;51.462;6.892;2022-11-20T11:15:47;17.88;;;10.30;;
44328;SDS011;30039;51.462;6.892;2022-11-20T11:18:33;19.00;;;10.77;;
44328;SDS011;30039;51.462;6.892;2022-11-20T11:21:23;15.25;;;9.88;;
44328;SDS011;30039;51.462;6.892;2022-11-20T11:24:15;15.38;;;9.90;;
44328;SDS011;30039;51.462;6.892;2022-11-20T11:27:10;18.00;;;9.52;;
44328;SDS011;30039;51.462;6.892;2022-11-20T11:30:10;18.25;;;9.95;;
44328;SDS011;30039;51.462;6.892;2022-11-20T11:33:06;19.60;;;9.98;;
44328;SDS011;30039;51.462;6.892;2022-11-20T11:35:53;15.63;;;8.68;;
44328;SDS011;30039;51.462;6.892;2022-11-20T11:38:40;19.85;;;9.32;;
44328;SDS011;30039;51.462;6.892;2022-11-20T11:41:28;17.10;;;9.10;;
44328;SDS011;30039;51.462;6.892;2022-11-20T11:47:25;18.80;;;9.35;;
44328;SDS011;30039;51.462;6.892;2022-11-20T11:55:56;17.00;;;9.23;;
44328;SDS011;30039;51.462;6.892;2022-11-20T12:01:44;15.88;;;9.13;;
44328;SDS011;30039;51.462;6.892;2022-11-20T12:04:48;15.88;;;8.98;;
44328;SDS011;30039;51.462;6.892;2022-11-20T12:07:46;16.17;;;8.85;;
44328;SDS011;30039;51.462;6.892;2022-11-20T12:16:23;18.90;;;10.15;;
44328;SDS011;30039;51.462;6.892;2022-11-20T12:19:10;17.35;;;9.32;;
44328;SDS011;30039;51.462;6.892;2022-11-20T12:37:09;17.35;;;9.45;;
44328;SDS011;30039;51.462;6.892;2022-11-20T12:39:56;18.50;;;9.90;;
44328;SDS011;30039;51.462;6.892;2022-11-20T12:42:53;17.88;;;9.88;;
44328;SDS011;30039;51.462;6.892;2022-11-20T12:46:18;17.88;;;9.43;;
44328;SDS011;30039;51.462;6.892;2022-11-20T12:49:26;17.48;;;9.30;;
44328;SDS011;30039;51.462;6.892;2022-11-20T12:52:26;19.50;;;9.75;;
44328;SDS011;30039;51.462;6.892;2022-11-20T13:07:18;19.67;;;10.43;;
44328;SDS011;30039;51.462;6.892;2022-11-20T13:10:05;20.27;;;10.43;;
44328;SDS011;30039;51.462;6.892;2022-11-20T13:12:58;17.37;;;9.20;;
44328;SDS011;30039;51.462;6.892;2022-11-20T13:15:48;18.60;;;9.32;;
44328;SDS011;30039;51.462;6.892;2022-11-20T13:18:38;25.02;;;13.02;;
44328;SDS011;30039;51.462;6.892;2022-11-20T13:24:32;21.10;;;10.13;;
44328;SDS011;30039;51.462;6.892;2022-11-20T13:27:21;19.90;;;10.38;;
44328;SDS011;30039;51.462;6.892;2022-11-20T13:30:16;21.50;;;10.40;;
44328;SDS011;30039;51.462;6.892;2022-11-20T13:33:06;21.83;;;10.38;;
44328;SDS011;30039;51.462;6.892;2022-11-20T13:35:55;19.77;;;10.43;;
44328;SDS011;30039;51.462;6.892;2022-11-20T13:38:48;23.83;;;12.85;;
44328;SDS011;30039;51.462;6.892;2022-11-20T13:41:36;23.75;;;11.27;;
44328;SDS011;30039;51.462;6.892;2022-11-20T13:47:25;24.60;;;12.15;;
44328;SDS011;30039;51.462;6.892;2022-11-20T13:50:13;23.33;;;11.73;;
44328;SDS011;30039;51.462;6.892;2022-11-20T13:56:16;24.42;;;12.98;;
44328;SDS011;30039;51.462;6.892;2022-11-20T13:59:12;29.67;;;15.18;;
44328;SDS011;30039;51.462;6.892;2022-11-20T14:01:59;23.17;;;12.95;;
44328;SDS011;30039;51.462;6.892;2022-11-20T14:04:46;21.45;;;12.27;;
44328;SDS011;30039;51.462;6.892;2022-11-20T14:07:40;22.40;;;11.98;;
44328;SDS011;30039;51.462;6.892;2022-11-20T14:10:28;26.63;;;13.63;;
44328;SDS011;30039;51.462;6.892;2022-11-20T14:13:20;23.73;;;12.93;;
44328;SDS011;30039;51.462;6.892;2022-11-20T14:16:06;22.63;;;12.43;;
44328;SDS011;30039;51.462;6.892;2022-11-20T14:18:52;24.25;;;13.32;;
44328;SDS011;30039;51.462;6.892;2022-11-20T14:21:38;27.75;;;13.23;;
44328;SDS011;30039;51.462;6.892;2022-11-20T14:24:25;22.35;;;12.13;;
44328;SDS011;30039;51.462;6.892;2022-11-20T14:27:14;24.40;;;12.30;;
44328;SDS011;30039;51.462;6.892;2022-11-20T14:30:02;25.15;;;12.38;;
44328;SDS011;30039;51.462;6.892;2022-11-20T14:32:48;26.55;;;13.32;;
44328;SDS011;30039;51.462;6.892;2022-11-20T14:35:35;27.58;;;13.52;;
44328;SDS011;30039;51.462;6.892;2022-11-20T14:38:27;22.33;;;12.88;;
44328;SDS011;30039;51.462;6.892;2022-11-20T14:41:17;24.55;;;12.68;;
44328;SDS011;30039;51.462;6.892;2022-11-20T14:44:05;25.15;;;13.55;;
44328;SDS011;30039;51.462;6.892;2022-11-20T14:46:51;25.83;;;12.82;;
44328;SDS011;30039;51.462;6.892;2022-11-20T14:49:37;26.42;;;12.68;;
44328;SDS011;30039;51.462;6.892;2022-11-20T14:52:25;26.02;;;13.50;;
44328;SDS011;30039;51.462;6.892;2022-11-20T14:55:13;25.25;;;13.82;;
44328;SDS011;30039;51.462;6.892;2022-11-20T14:58:00;25.50;;;12.98;;
44328;SDS011;30039;51.462;6.892;2022-11-20T15:00:56;25.23;;;13.63;;
44328;SDS011;30039;51.462;6.892;2022-11-20T15:03:42;24.80;;;12.52;;
44328;SDS011;30039;51.462;6.892;2022-11-20T15:06:29;24.27;;;13.18;;
44328;SDS011;30039;51.462;6.892;2022-11-20T15:09:16;27.17;;;13.38;;
44328;SDS011;30039;51.462;6.892;2022-11-20T15:12:02;27.92;;;13.65;;
44328;SDS011;30039;51.462;6.892;2022-11-20T15:14:49;27.35;;;13.13;;
44328;SDS011;30039;51.462;6.892;2022-11-20T15:17:34;25.77;;;12.98;;
44328;SDS011;30039;51.462;6.892;2022-11-20T15:20:24;23.83;;;12.60;;
44328;SDS011;30039;51.462;6.892;2022-11-20T15:23:11;29.70;;;13.43;;
44328;SDS011;30039;51.462;6.892;2022-11-20T15:25:57;26.58;;;13.82;;
44328;SDS011;30039;51.462;6.892;2022-11-20T15:28:43;24.63;;;12.45;;
44328;SDS011;30039;51.462;6.892;2022-11-20T15:31:30;24.08;;;12.52;;
44328;SDS011;30039;51.462;6.892;2022-11-20T15:34:16;27.83;;;13.82;;
44328;SDS011;30039;51.462;6.892;2022-11-20T15:37:02;28.08;;;14.63;;
44328;SDS011;30039;51.462;6.892;2022-11-20T15:39:47;27.30;;;13.25;;
44328;SDS011;30039;51.462;6.892;2022-11-20T15:42:38;26.98;;;13.75;;
44328;SDS011;30039;51.462;6.892;2022-11-20T15:45:24;23.80;;;11.68;;
44328;SDS011;30039;51.462;6.892;2022-11-20T15:48:12;26.27;;;13.30;;
44328;SDS011;30039;51.462;6.892;2022-11-20T15:53:57;25.55;;;14.20;;
44328;SDS011;30039;51.462;6.892;2022-11-20T15:56:43;26.23;;;13.70;;
44328;SDS011;30039;51.462;6.892;2022-11-20T15:59:28;22.67;;;13.40;;
44328;SDS011;30039;51.462;6.892;2022-11-20T16:02:14;24.48;;;13.98;;
44328;SDS011;30039;51.462;6.892;2022-11-20T16:05:00;29.50;;;15.82;;
44328;SDS011;30039;51.462;6.892;2022-11-20T16:07:46;27.08;;;13.38;;
44328;SDS011;30039;51.462;6.892;2022-11-20T16:10:31;24.60;;;14.50;;
44328;SDS011;30039;51.462;6.892;2022-11-20T16:13:18;28.58;;;15.35;;
44328;SDS011;30039;51.462;6.892;2022-11-20T16:19:11;27.00;;;13.20;;
44328;SDS011;30039;51.462;6.892;2022-11-20T16:21:59;28.40;;;14.05;;
44328;SDS011;30039;51.462;6.892;2022-11-20T16:24:48;30.65;;;16.00;;
44328;SDS011;30039;51.462;6.892;2022-11-20T16:27:34;30.83;;;16.58;;
44328;SDS011;30039;51.462;6.892;2022-11-20T16:30:20;30.23;;;15.95;;
44328;SDS011;30039;51.462;6.892;2022-11-20T16:33:12;27.00;;;14.63;;
44328;SDS011;30039;51.462;6.892;2022-11-20T16:36:05;28.30;;;13.82;;
44328;SDS011;30039;51.462;6.892;2022-11-20T16:38:52;25.00;;;13.82;;
44328;SDS011;30039;51.462;6.892;2022-11-20T16:41:40;25.55;;;13.80;;
44328;SDS011;30039;51.462;6.892;2022-11-20T16:44:26;29.10;;;14.73;;
44328;SDS011;30039;51.462;6.892;2022-11-20T16:47:11;24.42;;;12.55;;
44328;SDS011;30039;51.462;6.892;2022-11-20T16:49:57;26.58;;;13.65;;
44328;SDS011;30039;51.462;6.892;2022-11-20T16:52:43;23.73;;;11.98;;
44328;SDS011;30039;51.462;6.892;2022-11-20T16:55:28;21.17;;;11.95;;
44328;SDS011;30039;51.462;6.892;2022-11-20T16:58:14;27.15;;;12.60;;
44328;SDS011;30039;51.462;6.892;2022-11-20T17:01:06;24.92;;;13.10;;
44328;SDS011;30039;51.462;6.892;2022-11-20T17:03:56;21.08;;;10.30;;
44328;SDS011;30039;51.462;6.892;2022-11-20T17:06:42;18.88;;;9.45;;
44328;SDS011;30039;51.462;6.892;2022-11-20T17:09:28;19.55;;;9.38;;
44328;SDS011;30039;51.462;6.892;2022-11-20T17:12:14;19.27;;;10.52;;
44328;SDS011;30039;51.462;6.892;2022-11-20T17:15:00;17.42;;;9.82;;
44328;SDS011;30039;51.462;6.892;2022-11-20T17:17:45;18.55;;;10.25;;
44328;SDS011;30039;51.462;6.892;2022-11-20T17:20:31;19.00;;;9.48;;
44328;SDS011;30039;51.462;6.892;2022-11-20T17:23:17;17.95;;;8.95;;
44328;SDS011;30039;51.462;6.892;2022-11-20T17:26:03;17.05;;;8.20;;
44328;SDS011;30039;51.462;6.892;2022-11-20T17:28:54;18.98;;;9.27;;
44328;SDS011;30039;51.462;6.892;2022-11-20T17:31:40;17.25;;;8.85;;
44328;SDS011;30039;51.462;6.892;2022-11-20T17:34:26;19.13;;;9.48;;
44328;SDS011;30039;51.462;6.892;2022-11-20T17:37:12;21.33;;;9.48;;
44328;SDS011;30039;51.462;6.892;2022-11-20T17:39:57;16.13;;;8.10;;
44328;SDS011;30039;51.462;6.892;2022-11-20T17:42:43;13.73;;;7.38;;
44328;SDS011;30039;51.462;6.892;2022-11-20T17:45:29;13.73;;;7.53;;
44328;SDS011;30039;51.462;6.892;2022-11-20T17:48:15;14.45;;;7.05;;
44328;SDS011;30039;51.462;6.892;2022-11-20T17:51:01;13.88;;;6.97;;
44328;SDS011;30039;51.462;6.892;2022-11-20T17:53:47;14.88;;;6.10;;
44328;SDS011;30039;51.462;6.892;2022-11-20T17:56:34;14.05;;;6.55;;
44328;SDS011;30039;51.462;6.892;2022-11-20T17:59:38;12.43;;;5.47;;